Private Wetterstation Sandau
Wetterdaten: Woche 27.08.12 - 02.09.12 (KW35)
Datum Zeit Temp. A. Feuchte A. Luftdruck Regen Wind Richtung Taupunkt Windchill
27.08.2012 00:00 14,9 C 86 % 1014,8 hPa 0,0 l/m 8,5 km/h (2 Bft) W-NW 12,5 C 14,9 C
27.08.2012 01:00 14,4 C 85 % 1015,8 hPa 0,0 l/m 8,8 km/h (2 Bft) W-NW 11,9 C 14,4 C
27.08.2012 02:00 13,7 C 85 % 1016,5 hPa 0,0 l/m 5,1 km/h (1 Bft) W-SW 11,2 C 13,7 C
27.08.2012 03:00 13,9 C 87 % 1017,1 hPa 0,0 l/m 5,9 km/h (2 Bft) W 11,8 C 13,9 C
27.08.2012 04:00 13,7 C 88 % 1017,6 hPa 0,0 l/m 6,0 km/h (2 Bft) W 11,7 C 13,7 C
27.08.2012 05:00 13,3 C 89 % 1018,3 hPa 0,0 l/m 6,5 km/h (2 Bft) W-SW 11,5 C 13,3 C
27.08.2012 06:00 13,1 C 89 % 1018,9 hPa 0,0 l/m 4,6 km/h (1 Bft) W 11,3 C 13,1 C
27.08.2012 07:00 14,2 C 86 % 1019,6 hPa 0,0 l/m 7,1 km/h (2 Bft) W-SW 11,9 C 14,2 C
27.08.2012 08:00 15,0 C 82 % 1020,2 hPa 0,0 l/m 8,2 km/h (2 Bft) W 11,9 C 15,0 C
27.08.2012 09:00 16,5 C 75 % 1020,8 hPa 0,0 l/m 8,1 km/h (2 Bft) W-SW 12,0 C 16,5 C
27.08.2012 10:00 18,1 C 63 % 1021,0 hPa 0,0 l/m 8,3 km/h (2 Bft) W-NW 10,8 C 18,1 C
27.08.2012 11:00 19,1 C 55 % 1021,3 hPa 0,0 l/m 9,7 km/h (2 Bft) W-NW 9,7 C 19,1 C
27.08.2012 12:00 19,8 C 52 % 1021,5 hPa 0,0 l/m 12,7 km/h (3 Bft) NW 9,7 C 19,8 C
27.08.2012 13:00 20,5 C 49 % 1021,5 hPa 0,0 l/m 8,9 km/h (2 Bft) NW 9,3 C 20,5 C
27.08.2012 14:00 20,9 C 46 % 1021,3 hPa 0,0 l/m 7,8 km/h (2 Bft) NW 8,9 C 20,9 C
27.08.2012 15:00 22,5 C 42 % 1021,1 hPa 0,0 l/m 9,0 km/h (2 Bft) W-SW 8,8 C 22,5 C
27.08.2012 16:00 22,9 C 40 % 1021,0 hPa 0,0 l/m 6,1 km/h (2 Bft) W-NW 8,7 C 22,9 C
27.08.2012 17:00 23,1 C 40 % 1020,7 hPa 0,0 l/m 7,4 km/h (2 Bft) W-SW 8,7 C 23,1 C
27.08.2012 18:00 22,2 C 42 % 1020,6 hPa 0,0 l/m 5,6 km/h (1 Bft) W-SW 8,5 C 22,2 C
27.08.2012 19:00 20,7 C 46 % 1020,6 hPa 0,0 l/m 0,8 km/h (0 Bft) W-SW 8,8 C 20,7 C
27.08.2012 20:00 18,0 C 55 % 1020,6 hPa 0,0 l/m 0,0 km/h (0 Bft) N 8,7 C 18,0 C
27.08.2012 21:00 15,5 C 62 % 1020,7 hPa 0,0 l/m 0,8 km/h (0 Bft) SO 8,4 C 15,5 C
27.08.2012 22:00 14,4 C 66 % 1020,8 hPa 0,0 l/m 0,9 km/h (0 Bft) SO 8,2 C 14,4 C
27.08.2012 23:00 13,2 C 71 % 1020,6 hPa 0,0 l/m 0,5 km/h (0 Bft) O-SO 8,0 C 13,2 C
28.08.2012 00:00 12,4 C 76 % 1020,5 hPa 0,0 l/m 0,6 km/h (0 Bft) O-SO 8,2 C 12,4 C
28.08.2012 01:00 11,7 C 79 % 1020,2 hPa 0,0 l/m 0,9 km/h (0 Bft) SO 8,1 C 11,7 C
28.08.2012 02:00 11,2 C 80 % 1019,7 hPa 0,0 l/m 1,0 km/h (0 Bft) O-SO 7,9 C 11,2 C
28.08.2012 03:00 10,9 C 81 % 1019,4 hPa 0,0 l/m 1,9 km/h (1 Bft) O-SO 7,7 C 10,9 C
28.08.2012 04:00 10,5 C 82 % 1019,1 hPa 0,0 l/m 3,3 km/h (1 Bft) O-SO 7,6 C 10,5 C
28.08.2012 05:00 10,4 C 82 % 1018,8 hPa 0,0 l/m 3,8 km/h (1 Bft) O-SO 7,5 C 10,4 C
28.08.2012 06:00 10,6 C 82 % 1018,4 hPa 0,0 l/m 4,5 km/h (1 Bft) O-SO 7,6 C 10,6 C
28.08.2012 07:00 12,6 C 77 % 1018,4 hPa 0,0 l/m 3,5 km/h (1 Bft) O-SO 8,7 C 12,6 C
28.08.2012 08:00 14,6 C 73 % 1018,2 hPa 0,0 l/m 3,9 km/h (1 Bft) SO 9,9 C 14,6 C
28.08.2012 09:00 18,0 C 65 % 1017,9 hPa 0,0 l/m 5,4 km/h (1 Bft) S-SO 11,4 C 18,0 C
28.08.2012 10:00 20,1 C 60 % 1017,8 hPa 0,0 l/m 6,3 km/h (2 Bft) S-SW 12,1 C 20,1 C
28.08.2012 11:00 21,0 C 58 % 1017,5 hPa 0,0 l/m 7,5 km/h (2 Bft) S-SO 12,4 C 21,0 C
28.08.2012 12:00 22,0 C 57 % 1017,0 hPa 0,0 l/m 7,3 km/h (2 Bft) S-SO 13,0 C 22,0 C
28.08.2012 13:00 23,5 C 50 % 1016,8 hPa 0,0 l/m 7,1 km/h (2 Bft) SW 12,5 C 23,5 C
28.08.2012 14:00 24,1 C 45 % 1016,7 hPa 0,0 l/m 8,0 km/h (2 Bft) S-SO 11,5 C 24,1 C
28.08.2012 15:00 24,9 C 40 % 1016,7 hPa 0,0 l/m 10,6 km/h (2 Bft) S-SO 10,2 C 24,9 C
28.08.2012 16:00 24,5 C 41 % 1016,8 hPa 0,0 l/m 8,2 km/h (2 Bft) S-SW 10,4 C 24,5 C
28.08.2012 17:00 23,3 C 44 % 1016,4 hPa 0,0 l/m 6,7 km/h (2 Bft) SO 10,5 C 23,3 C
28.08.2012 18:00 22,5 C 49 % 1016,5 hPa 0,0 l/m 3,8 km/h (1 Bft) SO 11,2 C 22,5 C
28.08.2012 19:00 21,5 C 55 % 1016,5 hPa 0,0 l/m 2,1 km/h (1 Bft) O-SO 12,0 C 21,5 C
28.08.2012 20:00 19,8 C 62 % 1016,9 hPa 0,0 l/m 0,4 km/h (0 Bft) SO 12,2 C 19,8 C
28.08.2012 21:00 19,1 C 65 % 1017,3 hPa 0,0 l/m 0,0 km/h (0 Bft) N 12,3 C 19,1 C
28.08.2012 22:00 18,5 C 67 % 1017,5 hPa 0,0 l/m 0,0 km/h (0 Bft) N 12,3 C 18,5 C
28.08.2012 23:00 17,7 C 70 % 1017,6 hPa 0,0 l/m 0,0 km/h (0 Bft) N 12,1 C 17,7 C
29.08.2012 00:00 16,4 C 73 % 1017,8 hPa 0,0 l/m 0,0 km/h (0 Bft) N 11,5 C 16,4 C
29.08.2012 01:00 15,1 C 77 % 1018,1 hPa 0,0 l/m 0,0 km/h (0 Bft) N 11,1 C 15,1 C
29.08.2012 02:00 14,9 C 81 % 1018,4 hPa 0,0 l/m 0,5 km/h (0 Bft) O-NO 11,7 C 14,9 C
29.08.2012 03:00 14,5 C 82 % 1018,7 hPa 0,0 l/m 1,4 km/h (1 Bft) W 11,5 C 14,5 C
29.08.2012 04:00 14,0 C 84 % 1019,0 hPa 0,0 l/m 0,6 km/h (0 Bft) W-NW 11,3 C 14,0 C
29.08.2012 05:00 13,7 C 85 % 1019,3 hPa 0,0 l/m 0,3 km/h (0 Bft) W-SW 11,2 C 13,7 C
29.08.2012 06:00 14,1 C 86 % 1019,7 hPa 0,0 l/m 2,2 km/h (1 Bft) W-SW 11,8 C 14,1 C
29.08.2012 07:00 15,2 C 85 % 1019,8 hPa 0,0 l/m 0,0 km/h (0 Bft) N 12,8 C 15,2 C
29.08.2012 08:00 16,6 C 83 % 1019,8 hPa 0,0 l/m 0,0 km/h (0 Bft) SW 13,6 C 16,6 C
29.08.2012 09:00 19,0 C 78 % 1020,2 hPa 0,0 l/m 2,1 km/h (1 Bft) SW 15,0 C 19,0 C
29.08.2012 10:00 21,2 C 70 % 1020,2 hPa 0,0 l/m 2,3 km/h (1 Bft) S-SW 15,5 C 21,2 C
29.08.2012 11:00 23,0 C 63 % 1019,9 hPa 0,0 l/m 3,8 km/h (1 Bft) W-SW 15,4 C 23,0 C
29.08.2012 12:00 24,8 C 55 % 1019,5 hPa 0,0 l/m 4,8 km/h (1 Bft) S-SW 15,0 C 24,8 C
29.08.2012 13:00 26,0 C 47 % 1019,0 hPa 0,0 l/m 5,8 km/h (2 Bft) SW 13,7 C 26,0 C
29.08.2012 14:00 27,4 C 43 % 1018,6 hPa 0,0 l/m 4,3 km/h (1 Bft) S-SW 13,6 C 27,4 C
29.08.2012 15:00 27,6 C 40 % 1018,1 hPa 0,0 l/m 6,4 km/h (2 Bft) S-SO 12,9 C 27,6 C
29.08.2012 16:00 28,3 C 38 % 1017,5 hPa 0,0 l/m 6,1 km/h (2 Bft) S-SO 12,8 C 28,3 C
29.08.2012 17:00 28,2 C 38 % 1017,0 hPa 0,0 l/m 6,8 km/h (2 Bft) SO 12,6 C 28,2 C
29.08.2012 18:00 27,1 C 42 % 1016,7 hPa 0,0 l/m 5,8 km/h (2 Bft) S-SO 13,0 C 27,1 C
29.08.2012 19:00 25,4 C 47 % 1016,4 hPa 0,0 l/m 3,5 km/h (1 Bft) SO 13,3 C 25,4 C
29.08.2012 20:00 22,6 C 55 % 1016,5 hPa 0,0 l/m 3,6 km/h (1 Bft) O-SO 13,2 C 22,6 C
29.08.2012 21:00 20,8 C 62 % 1016,6 hPa 0,0 l/m 3,9 km/h (1 Bft) O-SO 13,2 C 20,8 C
29.08.2012 22:00 19,6 C 66 % 1016,6 hPa 0,0 l/m 2,9 km/h (1 Bft) O-SO 13,1 C 19,6 C
29.08.2012 23:00 18,7 C 69 % 1016,3 hPa 0,0 l/m 3,1 km/h (1 Bft) O-SO 13,0 C 18,7 C
30.08.2012 00:00 18,1 C 72 % 1016,1 hPa 0,0 l/m 3,6 km/h (1 Bft) O-SO 12,9 C 18,1 C
30.08.2012 01:00 17,5 C 74 % 1015,8 hPa 0,0 l/m 4,8 km/h (1 Bft) O-SO 12,8 C 17,5 C
30.08.2012 02:00 17,0 C 76 % 1015,4 hPa 0,0 l/m 1,0 km/h (0 Bft) O-SO 12,7 C 17,0 C
30.08.2012 03:00 16,5 C 78 % 1015,0 hPa 0,0 l/m 1,7 km/h (1 Bft) O-SO 12,5 C 16,5 C
30.08.2012 04:00 15,9 C 80 % 1014,7 hPa 0,0 l/m 2,7 km/h (1 Bft) O-SO 12,4 C 15,9 C
30.08.2012 05:00 15,5 C 82 % 1014,7 hPa 0,0 l/m 2,6 km/h (1 Bft) O-NO 12,5 C 15,5 C
30.08.2012 06:00 15,5 C 82 % 1014,6 hPa 0,0 l/m 2,2 km/h (1 Bft) O-SO 12,5 C 15,5 C
30.08.2012 07:00 15,4 C 83 % 1014,8 hPa 0,0 l/m 2,6 km/h (1 Bft) SO 12,5 C 15,4 C
30.08.2012 08:00 16,3 C 84 % 1015,0 hPa 0,0 l/m 1,6 km/h (1 Bft) S-SO 13,6 C 16,3 C
30.08.2012 09:00 17,4 C 84 % 1014,9 hPa 0,5 l/m 1,0 km/h (0 Bft) O-SO 14,7 C 17,4 C
30.08.2012 10:00 17,8 C 85 % 1015,3 hPa 2,1 l/m 1,8 km/h (1 Bft) W-NW 15,2 C 17,8 C
30.08.2012 11:00 18,2 C 87 % 1015,3 hPa 1,0 l/m 0,6 km/h (0 Bft) NW 16,0 C 18,2 C
30.08.2012 12:00 20,2 C 83 % 1015,6 hPa 0,0 l/m 3,1 km/h (1 Bft) W-SW 17,3 C 20,2 C
30.08.2012 13:00 21,8 C 77 % 1015,5 hPa 0,0 l/m 2,5 km/h (1 Bft) W-SW 17,5 C 21,8 C
30.08.2012 14:00 23,1 C 71 % 1015,6 hPa 0,0 l/m 0,8 km/h (0 Bft) W-SW 17,6 C 23,1 C
30.08.2012 15:00 22,9 C 71 % 1015,6 hPa 0,0 l/m 5,9 km/h (2 Bft) W 17,3 C 22,9 C
30.08.2012 16:00 20,7 C 80 % 1015,8 hPa 0,0 l/m 4,2 km/h (1 Bft) W-SW 17,0 C 20,7 C
30.08.2012 17:00 20,6 C 83 % 1015,4 hPa 0,0 l/m 2,8 km/h (1 Bft) W-SW 17,5 C 20,6 C
30.08.2012 18:00 20,6 C 82 % 1015,5 hPa 0,0 l/m 4,5 km/h (1 Bft) W-SW 17,4 C 20,6 C
30.08.2012 19:00 19,9 C 82 % 1015,4 hPa 0,0 l/m 1,3 km/h (1 Bft) W 16,7 C 19,9 C
30.08.2012 20:00 19,0 C 84 % 1015,5 hPa 0,0 l/m 0,8 km/h (0 Bft) W-NW 16,2 C 19,0 C
30.08.2012 21:00 18,3 C 83 % 1015,8 hPa 0,0 l/m 1,6 km/h (1 Bft) W-NW 15,4 C 18,3 C
30.08.2012 22:00 17,9 C 83 % 1015,7 hPa 0,0 l/m 0,8 km/h (0 Bft) NW 15,0 C 17,9 C
30.08.2012 23:00 17,5 C 84 % 1015,8 hPa 0,0 l/m 1,2 km/h (1 Bft) W 14,8 C 17,5 C
31.08.2012 00:00 17,3 C 84 % 1015,8 hPa 0,0 l/m 2,0 km/h (1 Bft) N-NW 14,5 C 17,3 C
31.08.2012 01:00 16,6 C 85 % 1015,5 hPa 0,5 l/m 4,7 km/h (1 Bft) N-NO 14,1 C 16,6 C
31.08.2012 02:00 16,0 C 86 % 1015,4 hPa 0,0 l/m 2,5 km/h (1 Bft) N-NO 13,7 C 16,0 C
31.08.2012 03:00 15,9 C 88 % 1015,5 hPa 3,6 l/m 2,2 km/h (1 Bft) NO 13,8 C 15,9 C
31.08.2012 04:00 15,5 C 89 % 1015,1 hPa 0,5 l/m 1,3 km/h (1 Bft) W-NW 13,6 C 15,5 C
31.08.2012 05:00 15,2 C 90 % 1015,3 hPa 0,0 l/m 1,1 km/h (1 Bft) W-NW 13,6 C 15,2 C
31.08.2012 06:00 15,0 C 90 % 1015,5 hPa 0,0 l/m 1,1 km/h (1 Bft) NW 13,4 C 15,0 C
31.08.2012 07:00 15,0 C 90 % 1015,5 hPa 0,0 l/m 1,8 km/h (1 Bft) N 13,4 C 15,0 C
31.08.2012 08:00 15,2 C 91 % 1015,5 hPa 0,0 l/m 1,8 km/h (1 Bft) N 13,7 C 15,2 C
31.08.2012 09:00 15,9 C 89 % 1015,7 hPa 0,0 l/m 2,8 km/h (1 Bft) N 14,2 C 15,9 C
31.08.2012 10:00 17,3 C 87 % 1015,9 hPa 0,0 l/m 3,9 km/h (1 Bft) NW 15,0 C 17,3 C
31.08.2012 11:00 18,6 C 81 % 1016,3 hPa 0,0 l/m 5,0 km/h (1 Bft) W 15,3 C 18,6 C
31.08.2012 12:00 19,0 C 77 % 1016,3 hPa 0,0 l/m 4,5 km/h (1 Bft) N-NO 14,9 C 19,0 C
31.08.2012 13:00 19,7 C 73 % 1016,5 hPa 0,0 l/m 5,0 km/h (1 Bft) W-NW 14,8 C 19,7 C
31.08.2012 14:00 20,4 C 68 % 1016,8 hPa 0,0 l/m 5,1 km/h (1 Bft) NW 14,3 C 20,4 C
31.08.2012 15:00 21,0 C 64 % 1016,9 hPa 0,0 l/m 4,8 km/h (1 Bft) NW 13,9 C 21,0 C
31.08.2012 16:00 21,5 C 59 % 1016,8 hPa 0,0 l/m 3,9 km/h (1 Bft) N-NO 13,2 C 21,5 C
31.08.2012 17:00 20,7 C 59 % 1017,6 hPa 0,0 l/m 5,4 km/h (1 Bft) N 12,4 C 20,7 C
31.08.2012 18:00 18,4 C 69 % 1018,1 hPa 0,0 l/m 5,8 km/h (2 Bft) N 12,6 C 18,4 C
31.08.2012 19:00 17,4 C 70 % 1018,7 hPa 0,0 l/m 4,6 km/h (1 Bft) N-NO 11,8 C 17,4 C
31.08.2012 20:00 15,8 C 72 % 1019,4 hPa 0,0 l/m 2,7 km/h (1 Bft) N-NO 10,9 C 15,8 C
31.08.2012 21:00 15,1 C 79 % 1019,8 hPa 0,0 l/m 2,7 km/h (1 Bft) N 11,5 C 15,1 C
31.08.2012 22:00 14,3 C 86 % 1020,0 hPa 0,0 l/m 4,4 km/h (1 Bft) N-NO 12,1 C 14,3 C
31.08.2012 23:00 13,7 C 87 % 1020,6 hPa 0,0 l/m 1,3 km/h (1 Bft) NW 11,6 C 13,7 C
01.09.2012 00:00 13,2 C 88 % 1021,4 hPa 0,0 l/m 2,6 km/h (1 Bft) NW 11,3 C 13,2 C
01.09.2012 01:00 12,5 C 88 % 1021,7 hPa 0,0 l/m 4,3 km/h (1 Bft) NW 10,6 C 12,5 C
01.09.2012 02:00 11,8 C 88 % 1021,9 hPa 0,0 l/m 2,9 km/h (1 Bft) NW 9,8 C 11,8 C
01.09.2012 03:00 11,2 C 88 % 1022,4 hPa 0,0 l/m 4,8 km/h (1 Bft) NW 9,3 C 11,2 C
01.09.2012 04:00 10,9 C 88 % 1022,9 hPa 0,0 l/m 4,9 km/h (1 Bft) W-NW 8,9 C 10,9 C
01.09.2012 05:00 10,5 C 88 % 1023,4 hPa 0,0 l/m 2,7 km/h (1 Bft) W-NW 8,6 C 10,5 C
01.09.2012 06:00 10,0 C 88 % 1023,5 hPa 0,0 l/m 2,9 km/h (1 Bft) W-SW 8,2 C 10,0 C
01.09.2012 07:00 11,0 C 88 % 1023,7 hPa 0,0 l/m 3,4 km/h (1 Bft) W-NW 9,0 C 10,9 C
01.09.2012 08:00 12,8 C 85 % 1024,2 hPa 0,0 l/m 4,4 km/h (1 Bft) W-NW 10,3 C 12,8 C
01.09.2012 09:00 14,8 C 80 % 1024,4 hPa 0,0 l/m 5,4 km/h (1 Bft) W-NW 11,4 C 14,8 C
01.09.2012 10:00 16,5 C 74 % 1024,6 hPa 0,0 l/m 7,1 km/h (2 Bft) W-NW 11,9 C 16,5 C
01.09.2012 11:00 17,7 C 69 % 1024,9 hPa 0,0 l/m 10,0 km/h (2 Bft) NW 11,9 C 17,7 C
01.09.2012 12:00 18,3 C 63 % 1025,2 hPa 0,0 l/m 8,1 km/h (2 Bft) W-NW 11,2 C 18,3 C
01.09.2012 13:00 17,9 C 62 % 1025,5 hPa 0,0 l/m 4,3 km/h (1 Bft) NW 10,5 C 17,9 C
01.09.2012 14:00 18,0 C 62 % 1025,5 hPa 0,0 l/m 3,4 km/h (1 Bft) N-NO 10,6 C 18,0 C
01.09.2012 15:00 18,5 C 59 % 1025,6 hPa 0,0 l/m 4,4 km/h (1 Bft) N-NO 10,4 C 18,5 C
01.09.2012 16:00 18,4 C 61 % 1025,6 hPa 0,0 l/m 4,6 km/h (1 Bft) N 10,7 C 18,4 C
01.09.2012 17:00 17,9 C 62 % 1025,6 hPa 0,0 l/m 7,0 km/h (2 Bft) N-NO 10,5 C 17,9 C
01.09.2012 18:00 17,2 C 63 % 1025,7 hPa 0,0 l/m 3,6 km/h (1 Bft) N 10,1 C 17,2 C
01.09.2012 19:00 17,0 C 66 % 1025,6 hPa 0,0 l/m 0,2 km/h (0 Bft) N 10,5 C 17,0 C
01.09.2012 20:00 16,0 C 68 % 1026,0 hPa 0,0 l/m 0,9 km/h (0 Bft) N-NO 10,2 C 16,0 C
01.09.2012 21:00 14,6 C 72 % 1026,4 hPa 0,0 l/m 0,4 km/h (0 Bft) N-NW 9,6 C 14,6 C
01.09.2012 22:00 13,0 C 76 % 1026,5 hPa 0,0 l/m 0,1 km/h (0 Bft) N-NW 8,9 C 13,0 C
01.09.2012 23:00 12,1 C 80 % 1026,6 hPa 0,0 l/m 0,4 km/h (0 Bft) S 8,8 C 12,1 C
02.09.2012 00:00 11,0 C 82 % 1026,9 hPa 0,0 l/m 0,1 km/h (0 Bft) S-SO 8,0 C 11,0 C
02.09.2012 01:00 10,3 C 84 % 1027,0 hPa 0,0 l/m 0,5 km/h (0 Bft) S-SO 7,7 C 10,3 C
02.09.2012 02:00 10,0 C 86 % 1027,0 hPa 0,0 l/m 0,6 km/h (0 Bft) S 7,7 C 10,0 C
02.09.2012 03:00 9,6 C 87 % 1026,8 hPa 0,0 l/m 1,0 km/h (0 Bft) S-SO 7,4 C 9,6 C
02.09.2012 04:00 9,3 C 87 % 1026,4 hPa 0,0 l/m 0,0 km/h (0 Bft) N 7,2 C 9,3 C
02.09.2012 05:00 8,9 C 88 % 1026,6 hPa 0,0 l/m 0,4 km/h (0 Bft) SO 7,0 C 8,9 C
02.09.2012 06:00 8,6 C 88 % 1026,6 hPa 0,0 l/m 1,0 km/h (0 Bft) SO 6,7 C 8,6 C
02.09.2012 07:00 9,0 C 88 % 1026,6 hPa 0,0 l/m 0,7 km/h (0 Bft) S-SO 7,1 C 9,0 C
02.09.2012 08:00 11,1 C 86 % 1026,9 hPa 0,0 l/m 1,6 km/h (1 Bft) S-SO 8,9 C 11,1 C
02.09.2012 09:00 13,5 C 83 % 1026,9 hPa 0,0 l/m 4,3 km/h (1 Bft) S-SO 10,7 C 13,5 C
02.09.2012 10:00 17,0 C 75 % 1026,9 hPa 0,0 l/m 6,3 km/h (2 Bft) S-SW 12,4 C 17,0 C
02.09.2012 11:00 19,7 C 62 % 1026,9 hPa 0,0 l/m 7,4 km/h (2 Bft) S 12,3 C 19,7 C
02.09.2012 12:00 20,2 C 56 % 1026,5 hPa 0,0 l/m 7,8 km/h (2 Bft) S-SW 11,1 C 20,2 C
02.09.2012 13:00 20,6 C 51 % 1026,2 hPa 0,0 l/m 8,4 km/h (2 Bft) S 10,1 C 20,6 C
02.09.2012 14:00 21,5 C 49 % 1025,6 hPa 0,0 l/m 7,5 km/h (2 Bft) S-SW 10,5 C 21,5 C
02.09.2012 15:00 22,6 C 47 % 1025,1 hPa 0,0 l/m 7,2 km/h (2 Bft) W-SW 10,7 C 22,6 C
02.09.2012 16:00 22,7 C 47 % 1024,6 hPa 0,0 l/m 6,7 km/h (2 Bft) W-SW 10,9 C 22,7 C
02.09.2012 17:00 22,8 C 48 % 1024,2 hPa 0,0 l/m 6,1 km/h (2 Bft) W-SW 11,0 C 22,8 C
02.09.2012 18:00 22,0 C 48 % 1024,0 hPa 0,0 l/m 6,7 km/h (2 Bft) SW 10,5 C 22,0 C
02.09.2012 19:00 21,1 C 51 % 1024,0 hPa 0,0 l/m 1,9 km/h (1 Bft) S 10,6 C 21,1 C
02.09.2012 20:00 18,1 C 59 % 1024,1 hPa 0,0 l/m 0,2 km/h (0 Bft) S 10,0 C 18,1 C
02.09.2012 21:00 16,1 C 67 % 1024,5 hPa 0,0 l/m 0,0 km/h (0 Bft) N 9,9 C 16,1 C
02.09.2012 22:00 15,0 C 74 % 1024,7 hPa 0,0 l/m 0,3 km/h (0 Bft) S 10,3 C 15,0 C
02.09.2012 23:00 14,7 C 77 % 1024,7 hPa 0,0 l/m 0,6 km/h (0 Bft) S 10,7 C 14,7 C
Min-Datum _ 02.09.12 29.08.12 27.08.12 - 27.08.12 - 02.09.12 02.09.12
_ Min-Zeit 06:46 16:46 00:01 - 03:26 - 06:46 06:46
Minimum _ 8,4 C 37 % 1014,2 hPa - 0,0 km/h (0 Bft) - 6,5 C 8,4 C
Max-Datum _ 29.08.12 31.08.12 02.09.12 31.08.12 27.08.12 - 30.08.12 29.08.12
_ Max-Zeit 16:41 08:11 00:51 03:11 12:11 - 14:31 16:41
Maximum _ 28,7 C 91 % 1027,2 hPa 3,6 l/m 25,2 km/h
NW (4 Bft)
- 17,7 C 28,7 C
Durchschnitt _ 17,3 C 71 % 1019,8 hPa #8,3 l/m 3,7 km/h (1 Bft) W-NW 11,7 C 17,3 C
(c) by David Heller